sensor_id;sensor_type;location;lat;lon;timestamp;P1;durP1;ratioP1;P2;durP2;ratioP2
13672;SDS011;6909;52.202;9.876;2023-07-08T00:01:58;1.80;;;1.17;;
13672;SDS011;6909;52.202;9.876;2023-07-08T00:04:24;1.60;;;1.17;;
13672;SDS011;6909;52.202;9.876;2023-07-08T00:06:51;2.67;;;1.40;;
13672;SDS011;6909;52.202;9.876;2023-07-08T00:09:18;1.67;;;1.57;;
13672;SDS011;6909;52.202;9.876;2023-07-08T00:11:45;4.00;;;1.70;;
13672;SDS011;6909;52.202;9.876;2023-07-08T00:14:11;1.70;;;1.57;;
13672;SDS011;6909;52.202;9.876;2023-07-08T00:16:39;1.90;;;1.40;;
13672;SDS011;6909;52.202;9.876;2023-07-08T00:19:07;1.37;;;1.10;;
13672;SDS011;6909;52.202;9.876;2023-07-08T00:21:35;3.67;;;1.40;;
13672;SDS011;6909;52.202;9.876;2023-07-08T00:24:02;1.57;;;1.30;;
13672;SDS011;6909;52.202;9.876;2023-07-08T00:26:29;3.03;;;1.57;;
13672;SDS011;6909;52.202;9.876;2023-07-08T00:28:57;4.30;;;1.40;;
13672;SDS011;6909;52.202;9.876;2023-07-08T00:31:24;2.23;;;1.77;;
13672;SDS011;6909;52.202;9.876;2023-07-08T00:33:53;1.70;;;1.43;;
13672;SDS011;6909;52.202;9.876;2023-07-08T00:36:21;1.97;;;1.30;;
13672;SDS011;6909;52.202;9.876;2023-07-08T00:38:49;1.23;;;1.10;;
13672;SDS011;6909;52.202;9.876;2023-07-08T00:41:16;4.10;;;2.47;;
13672;SDS011;6909;52.202;9.876;2023-07-08T00:43:48;1.87;;;1.43;;
13672;SDS011;6909;52.202;9.876;2023-07-08T00:46:18;2.53;;;1.90;;
13672;SDS011;6909;52.202;9.876;2023-07-08T00:48:58;3.27;;;2.03;;
13672;SDS011;6909;52.202;9.876;2023-07-08T00:51:29;2.00;;;1.50;;
13672;SDS011;6909;52.202;9.876;2023-07-08T00:53:55;2.27;;;1.63;;
13672;SDS011;6909;52.202;9.876;2023-07-08T00:56:23;2.53;;;1.40;;
13672;SDS011;6909;52.202;9.876;2023-07-08T00:58:55;1.90;;;1.50;;
13672;SDS011;6909;52.202;9.876;2023-07-08T01:01:27;1.60;;;1.50;;
13672;SDS011;6909;52.202;9.876;2023-07-08T01:03:58;1.63;;;1.30;;
13672;SDS011;6909;52.202;9.876;2023-07-08T01:06:33;1.70;;;1.50;;
13672;SDS011;6909;52.202;9.876;2023-07-08T01:09:05;2.07;;;1.77;;
13672;SDS011;6909;52.202;9.876;2023-07-08T01:11:34;2.47;;;1.87;;
13672;SDS011;6909;52.202;9.876;2023-07-08T01:14:02;1.80;;;1.60;;
13672;SDS011;6909;52.202;9.876;2023-07-08T01:16:31;2.67;;;1.83;;
13672;SDS011;6909;52.202;9.876;2023-07-08T01:19:00;2.07;;;1.60;;
13672;SDS011;6909;52.202;9.876;2023-07-08T01:21:29;3.03;;;1.70;;
13672;SDS011;6909;52.202;9.876;2023-07-08T01:24:01;1.70;;;1.40;;
13672;SDS011;6909;52.202;9.876;2023-07-08T01:26:30;3.20;;;1.77;;
13672;SDS011;6909;52.202;9.876;2023-07-08T01:28:59;2.20;;;1.57;;
13672;SDS011;6909;52.202;9.876;2023-07-08T01:31:26;1.77;;;1.50;;
13672;SDS011;6909;52.202;9.876;2023-07-08T01:33:53;3.27;;;1.57;;
13672;SDS011;6909;52.202;9.876;2023-07-08T01:36:20;2.93;;;1.30;;
13672;SDS011;6909;52.202;9.876;2023-07-08T01:38:47;1.50;;;1.30;;
13672;SDS011;6909;52.202;9.876;2023-07-08T01:41:16;2.60;;;1.80;;
13672;SDS011;6909;52.202;9.876;2023-07-08T01:43:43;2.83;;;1.53;;
13672;SDS011;6909;52.202;9.876;2023-07-08T01:46:11;4.07;;;1.43;;
13672;SDS011;6909;52.202;9.876;2023-07-08T01:48:40;2.17;;;1.77;;
13672;SDS011;6909;52.202;9.876;2023-07-08T01:51:10;1.40;;;1.30;;
13672;SDS011;6909;52.202;9.876;2023-07-08T01:53:39;1.67;;;1.37;;
13672;SDS011;6909;52.202;9.876;2023-07-08T01:56:07;1.47;;;1.37;;
13672;SDS011;6909;52.202;9.876;2023-07-08T01:58:36;3.90;;;2.07;;
13672;SDS011;6909;52.202;9.876;2023-07-08T02:01:03;2.13;;;1.43;;
13672;SDS011;6909;52.202;9.876;2023-07-08T02:03:30;2.90;;;1.90;;
13672;SDS011;6909;52.202;9.876;2023-07-08T02:05:57;1.50;;;1.20;;
13672;SDS011;6909;52.202;9.876;2023-07-08T02:08:23;4.60;;;1.63;;
13672;SDS011;6909;52.202;9.876;2023-07-08T02:10:51;1.77;;;1.57;;
13672;SDS011;6909;52.202;9.876;2023-07-08T02:13:19;2.13;;;1.87;;
13672;SDS011;6909;52.202;9.876;2023-07-08T02:15:48;2.20;;;1.90;;
13672;SDS011;6909;52.202;9.876;2023-07-08T02:18:15;1.77;;;1.50;;
13672;SDS011;6909;52.202;9.876;2023-07-08T02:20:44;2.50;;;1.50;;
13672;SDS011;6909;52.202;9.876;2023-07-08T02:23:11;1.40;;;1.30;;
13672;SDS011;6909;52.202;9.876;2023-07-08T02:25:37;4.80;;;2.00;;
13672;SDS011;6909;52.202;9.876;2023-07-08T02:28:04;1.97;;;1.60;;
13672;SDS011;6909;52.202;9.876;2023-07-08T02:30:31;1.43;;;1.27;;
13672;SDS011;6909;52.202;9.876;2023-07-08T02:32:59;2.23;;;1.43;;
13672;SDS011;6909;52.202;9.876;2023-07-08T02:35:26;2.37;;;2.13;;
13672;SDS011;6909;52.202;9.876;2023-07-08T02:37:53;1.67;;;1.23;;
13672;SDS011;6909;52.202;9.876;2023-07-08T02:40:21;2.50;;;2.00;;
13672;SDS011;6909;52.202;9.876;2023-07-08T02:42:48;4.17;;;1.87;;
13672;SDS011;6909;52.202;9.876;2023-07-08T02:45:16;2.90;;;1.77;;
13672;SDS011;6909;52.202;9.876;2023-07-08T02:47:43;2.70;;;1.73;;
13672;SDS011;6909;52.202;9.876;2023-07-08T02:50:11;2.47;;;1.67;;
13672;SDS011;6909;52.202;9.876;2023-07-08T02:52:38;2.97;;;1.70;;
13672;SDS011;6909;52.202;9.876;2023-07-08T02:55:05;4.70;;;1.57;;
13672;SDS011;6909;52.202;9.876;2023-07-08T02:57:32;1.83;;;1.37;;
13672;SDS011;6909;52.202;9.876;2023-07-08T02:59:59;1.83;;;1.60;;
13672;SDS011;6909;52.202;9.876;2023-07-08T03:02:26;1.97;;;1.57;;
13672;SDS011;6909;52.202;9.876;2023-07-08T03:04:53;1.50;;;1.40;;
13672;SDS011;6909;52.202;9.876;2023-07-08T03:07:25;1.93;;;1.70;;
13672;SDS011;6909;52.202;9.876;2023-07-08T03:09:51;3.93;;;1.87;;
13672;SDS011;6909;52.202;9.876;2023-07-08T03:12:18;2.33;;;1.90;;
13672;SDS011;6909;52.202;9.876;2023-07-08T03:14:45;2.17;;;1.83;;
13672;SDS011;6909;52.202;9.876;2023-07-08T03:17:12;3.13;;;2.20;;
13672;SDS011;6909;52.202;9.876;2023-07-08T03:19:39;3.33;;;1.87;;
13672;SDS011;6909;52.202;9.876;2023-07-08T03:22:06;2.33;;;1.30;;
13672;SDS011;6909;52.202;9.876;2023-07-08T03:24:34;1.80;;;1.50;;
13672;SDS011;6909;52.202;9.876;2023-07-08T03:27:01;3.43;;;1.73;;
13672;SDS011;6909;52.202;9.876;2023-07-08T03:29:30;1.93;;;1.23;;
13672;SDS011;6909;52.202;9.876;2023-07-08T03:31:56;1.40;;;1.30;;
13672;SDS011;6909;52.202;9.876;2023-07-08T03:34:23;6.53;;;1.73;;
13672;SDS011;6909;52.202;9.876;2023-07-08T03:36:50;2.07;;;1.50;;
13672;SDS011;6909;52.202;9.876;2023-07-08T03:39:19;3.70;;;1.40;;
13672;SDS011;6909;52.202;9.876;2023-07-08T03:41:48;1.90;;;1.50;;
13672;SDS011;6909;52.202;9.876;2023-07-08T03:44:15;5.73;;;1.60;;
13672;SDS011;6909;52.202;9.876;2023-07-08T03:46:42;1.40;;;1.30;;
13672;SDS011;6909;52.202;9.876;2023-07-08T03:49:10;2.13;;;1.20;;
13672;SDS011;6909;52.202;9.876;2023-07-08T03:51:38;2.53;;;1.60;;
13672;SDS011;6909;52.202;9.876;2023-07-08T03:54:06;1.53;;;1.43;;
13672;SDS011;6909;52.202;9.876;2023-07-08T03:56:34;2.00;;;1.50;;
13672;SDS011;6909;52.202;9.876;2023-07-08T03:59:03;4.20;;;1.97;;
13672;SDS011;6909;52.202;9.876;2023-07-08T04:01:29;1.93;;;1.60;;
13672;SDS011;6909;52.202;9.876;2023-07-08T04:03:57;2.23;;;1.63;;
13672;SDS011;6909;52.202;9.876;2023-07-08T04:06:24;1.90;;;1.67;;
13672;SDS011;6909;52.202;9.876;2023-07-08T04:08:53;3.30;;;1.80;;
13672;SDS011;6909;52.202;9.876;2023-07-08T04:11:21;1.27;;;1.13;;
13672;SDS011;6909;52.202;9.876;2023-07-08T04:13:49;2.20;;;1.57;;
13672;SDS011;6909;52.202;9.876;2023-07-08T04:16:18;1.90;;;1.50;;
13672;SDS011;6909;52.202;9.876;2023-07-08T04:18:49;2.83;;;1.43;;
13672;SDS011;6909;52.202;9.876;2023-07-08T04:21:18;3.33;;;1.40;;
13672;SDS011;6909;52.202;9.876;2023-07-08T04:23:45;7.73;;;1.97;;
13672;SDS011;6909;52.202;9.876;2023-07-08T04:26:12;6.63;;;1.90;;
13672;SDS011;6909;52.202;9.876;2023-07-08T04:28:39;2.40;;;1.63;;
13672;SDS011;6909;52.202;9.876;2023-07-08T04:31:05;1.60;;;1.50;;
13672;SDS011;6909;52.202;9.876;2023-07-08T04:33:33;1.80;;;1.70;;
13672;SDS011;6909;52.202;9.876;2023-07-08T04:36:00;4.77;;;2.00;;
13672;SDS011;6909;52.202;9.876;2023-07-08T04:38:27;2.72;;;1.70;;
13672;SDS011;6909;52.202;9.876;2023-07-08T04:40:53;3.22;;;1.88;;
13672;SDS011;6909;52.202;9.876;2023-07-08T04:43:22;2.22;;;2.03;;
13672;SDS011;6909;52.202;9.876;2023-07-08T04:45:54;3.90;;;1.77;;
13672;SDS011;6909;52.202;9.876;2023-07-08T04:48:22;1.73;;;1.63;;
13672;SDS011;6909;52.202;9.876;2023-07-08T04:50:51;2.22;;;1.42;;
13672;SDS011;6909;52.202;9.876;2023-07-08T04:53:18;3.20;;;1.70;;
13672;SDS011;6909;52.202;9.876;2023-07-08T04:55:46;2.38;;;1.80;;
13672;SDS011;6909;52.202;9.876;2023-07-08T04:58:16;2.42;;;1.83;;
13672;SDS011;6909;52.202;9.876;2023-07-08T05:00:42;1.55;;;1.45;;
13672;SDS011;6909;52.202;9.876;2023-07-08T05:03:09;1.77;;;1.60;;
13672;SDS011;6909;52.202;9.876;2023-07-08T05:05:36;1.67;;;1.58;;
13672;SDS011;6909;52.202;9.876;2023-07-08T05:08:04;2.15;;;1.92;;
13672;SDS011;6909;52.202;9.876;2023-07-08T05:10:31;2.00;;;1.65;;
13672;SDS011;6909;52.202;9.876;2023-07-08T05:12:59;2.55;;;1.80;;
13672;SDS011;6909;52.202;9.876;2023-07-08T05:15:26;2.85;;;2.10;;
13672;SDS011;6909;52.202;9.876;2023-07-08T05:17:53;2.17;;;2.08;;
13672;SDS011;6909;52.202;9.876;2023-07-08T05:20:19;2.00;;;1.85;;
13672;SDS011;6909;52.202;9.876;2023-07-08T05:22:47;1.80;;;1.70;;
13672;SDS011;6909;52.202;9.876;2023-07-08T05:25:18;2.22;;;2.00;;
13672;SDS011;6909;52.202;9.876;2023-07-08T05:27:45;2.13;;;1.92;;
13672;SDS011;6909;52.202;9.876;2023-07-08T05:30:12;2.63;;;2.10;;
13672;SDS011;6909;52.202;9.876;2023-07-08T05:32:41;2.05;;;1.73;;
13672;SDS011;6909;52.202;9.876;2023-07-08T05:35:08;2.40;;;2.20;;
13672;SDS011;6909;52.202;9.876;2023-07-08T05:37:34;2.22;;;2.13;;
13672;SDS011;6909;52.202;9.876;2023-07-08T05:40:01;2.53;;;2.33;;
13672;SDS011;6909;52.202;9.876;2023-07-08T05:42:30;2.42;;;2.22;;
13672;SDS011;6909;52.202;9.876;2023-07-08T05:44:57;2.58;;;2.38;;
13672;SDS011;6909;52.202;9.876;2023-07-08T05:47:24;2.60;;;2.40;;
13672;SDS011;6909;52.202;9.876;2023-07-08T05:49:52;2.67;;;2.40;;
13672;SDS011;6909;52.202;9.876;2023-07-08T05:52:18;3.80;;;2.25;;
13672;SDS011;6909;52.202;9.876;2023-07-08T05:54:45;4.18;;;2.30;;
13672;SDS011;6909;52.202;9.876;2023-07-08T05:57:12;2.70;;;2.50;;
13672;SDS011;6909;52.202;9.876;2023-07-08T05:59:40;2.70;;;2.50;;
13672;SDS011;6909;52.202;9.876;2023-07-08T06:02:08;2.83;;;2.63;;
13672;SDS011;6909;52.202;9.876;2023-07-08T06:04:36;4.03;;;2.40;;
13672;SDS011;6909;52.202;9.876;2023-07-08T06:07:03;2.88;;;2.50;;
13672;SDS011;6909;52.202;9.876;2023-07-08T06:09:30;2.28;;;2.08;;
13672;SDS011;6909;52.202;9.876;2023-07-08T06:11:57;2.22;;;2.08;;
13672;SDS011;6909;52.202;9.876;2023-07-08T06:14:23;2.38;;;2.17;;
13672;SDS011;6909;52.202;9.876;2023-07-08T06:16:51;3.55;;;2.15;;
13672;SDS011;6909;52.202;9.876;2023-07-08T06:19:19;2.42;;;2.22;;
13672;SDS011;6909;52.202;9.876;2023-07-08T06:21:46;2.85;;;2.65;;
13672;SDS011;6909;52.202;9.876;2023-07-08T06:24:13;2.53;;;2.33;;
13672;SDS011;6909;52.202;9.876;2023-07-08T06:26:39;2.47;;;2.28;;
13672;SDS011;6909;52.202;9.876;2023-07-08T06:29:06;2.55;;;2.35;;
13672;SDS011;6909;52.202;9.876;2023-07-08T06:31:33;2.83;;;2.30;;
13672;SDS011;6909;52.202;9.876;2023-07-08T06:34:01;2.38;;;2.17;;
13672;SDS011;6909;52.202;9.876;2023-07-08T06:36:29;3.13;;;2.38;;
13672;SDS011;6909;52.202;9.876;2023-07-08T06:38:55;3.00;;;2.42;;
13672;SDS011;6909;52.202;9.876;2023-07-08T06:41:22;2.22;;;2.13;;
13672;SDS011;6909;52.202;9.876;2023-07-08T06:43:49;2.40;;;2.20;;
13672;SDS011;6909;52.202;9.876;2023-07-08T06:46:15;2.40;;;2.22;;
13672;SDS011;6909;52.202;9.876;2023-07-08T06:48:43;2.22;;;2.08;;
13672;SDS011;6909;52.202;9.876;2023-07-08T06:51:11;3.63;;;2.22;;
13672;SDS011;6909;52.202;9.876;2023-07-08T06:53:38;2.20;;;2.00;;
13672;SDS011;6909;52.202;9.876;2023-07-08T06:56:05;3.03;;;2.47;;
13672;SDS011;6909;52.202;9.876;2023-07-08T06:58:31;3.97;;;2.45;;
13672;SDS011;6909;52.202;9.876;2023-07-08T07:00:58;2.25;;;2.15;;
13672;SDS011;6909;52.202;9.876;2023-07-08T07:03:25;2.72;;;2.53;;
13672;SDS011;6909;52.202;9.876;2023-07-08T07:05:51;2.60;;;2.40;;
13672;SDS011;6909;52.202;9.876;2023-07-08T07:08:19;2.35;;;2.25;;
13672;SDS011;6909;52.202;9.876;2023-07-08T07:10:46;2.33;;;2.20;;
13672;SDS011;6909;52.202;9.876;2023-07-08T07:13:13;2.55;;;2.40;;
13672;SDS011;6909;52.202;9.876;2023-07-08T07:15:40;2.78;;;2.53;;
13672;SDS011;6909;52.202;9.876;2023-07-08T07:18:06;2.72;;;2.50;;
13672;SDS011;6909;52.202;9.876;2023-07-08T07:20:33;2.75;;;2.55;;
13672;SDS011;6909;52.202;9.876;2023-07-08T07:23:02;2.55;;;2.35;;
13672;SDS011;6909;52.202;9.876;2023-07-08T07:25:30;2.80;;;2.30;;
13672;SDS011;6909;52.202;9.876;2023-07-08T07:27:56;2.38;;;2.28;;
13672;SDS011;6909;52.202;9.876;2023-07-08T07:30:23;3.03;;;2.80;;
13672;SDS011;6909;52.202;9.876;2023-07-08T07:32:50;2.80;;;2.60;;
13672;SDS011;6909;52.202;9.876;2023-07-08T07:35:17;2.67;;;2.47;;
13672;SDS011;6909;52.202;9.876;2023-07-08T07:37:43;2.70;;;2.50;;
13672;SDS011;6909;52.202;9.876;2023-07-08T07:40:11;2.40;;;2.30;;
13672;SDS011;6909;52.202;9.876;2023-07-08T07:42:42;2.90;;;2.70;;
13672;SDS011;6909;52.202;9.876;2023-07-08T07:45:10;3.30;;;2.38;;
13672;SDS011;6909;52.202;9.876;2023-07-08T07:47:37;2.30;;;2.20;;
13672;SDS011;6909;52.202;9.876;2023-07-08T07:50:05;2.60;;;2.40;;
13672;SDS011;6909;52.202;9.876;2023-07-08T07:52:33;2.70;;;2.50;;
13672;SDS011;6909;52.202;9.876;2023-07-08T07:55:02;2.40;;;2.30;;
13672;SDS011;6909;52.202;9.876;2023-07-08T07:57:29;2.75;;;2.55;;
13672;SDS011;6909;52.202;9.876;2023-07-08T07:59:57;2.08;;;1.98;;
13672;SDS011;6909;52.202;9.876;2023-07-08T08:02:24;2.95;;;2.30;;
13672;SDS011;6909;52.202;9.876;2023-07-08T08:04:50;2.50;;;2.30;;
13672;SDS011;6909;52.202;9.876;2023-07-08T08:07:18;3.90;;;2.45;;
13672;SDS011;6909;52.202;9.876;2023-07-08T08:09:45;2.75;;;2.42;;
13672;SDS011;6909;52.202;9.876;2023-07-08T08:12:11;2.28;;;2.17;;
13672;SDS011;6909;52.202;9.876;2023-07-08T08:14:38;2.83;;;2.63;;
13672;SDS011;6909;52.202;9.876;2023-07-08T08:17:06;2.78;;;2.58;;
13672;SDS011;6909;52.202;9.876;2023-07-08T08:19:33;2.72;;;2.40;;
13672;SDS011;6909;52.202;9.876;2023-07-08T08:22:00;2.63;;;2.42;;
13672;SDS011;6909;52.202;9.876;2023-07-08T08:24:26;2.85;;;2.58;;
13672;SDS011;6909;52.202;9.876;2023-07-08T08:26:53;2.60;;;2.40;;
13672;SDS011;6909;52.202;9.876;2023-07-08T08:29:20;2.65;;;2.50;;
13672;SDS011;6909;52.202;9.876;2023-07-08T08:31:46;2.65;;;2.45;;
13672;SDS011;6909;52.202;9.876;2023-07-08T08:34:14;2.88;;;2.67;;
13672;SDS011;6909;52.202;9.876;2023-07-08T08:36:41;2.88;;;2.67;;
13672;SDS011;6909;52.202;9.876;2023-07-08T08:39:08;2.60;;;2.42;;
13672;SDS011;6909;52.202;9.876;2023-07-08T08:41:36;3.33;;;3.03;;
13672;SDS011;6909;52.202;9.876;2023-07-08T08:44:04;2.88;;;2.58;;
13672;SDS011;6909;52.202;9.876;2023-07-08T08:46:34;3.90;;;2.70;;
13672;SDS011;6909;52.202;9.876;2023-07-08T08:49:08;2.85;;;2.65;;
13672;SDS011;6909;52.202;9.876;2023-07-08T08:51:48;4.90;;;2.90;;
13672;SDS011;6909;52.202;9.876;2023-07-08T08:54:15;2.92;;;2.65;;
13672;SDS011;6909;52.202;9.876;2023-07-08T08:56:44;2.78;;;2.58;;
13672;SDS011;6909;52.202;9.876;2023-07-08T08:59:18;2.75;;;2.55;;
13672;SDS011;6909;52.202;9.876;2023-07-08T09:01:53;2.80;;;2.60;;
13672;SDS011;6909;52.202;9.876;2023-07-08T09:04:23;2.67;;;2.50;;
13672;SDS011;6909;52.202;9.876;2023-07-08T09:06:57;3.05;;;2.50;;
13672;SDS011;6909;52.202;9.876;2023-07-08T09:09:32;3.13;;;2.90;;
13672;SDS011;6909;52.202;9.876;2023-07-08T09:12:05;2.75;;;2.55;;
13672;SDS011;6909;52.202;9.876;2023-07-08T09:14:36;2.58;;;2.38;;
13672;SDS011;6909;52.202;9.876;2023-07-08T09:17:09;2.58;;;2.38;;
13672;SDS011;6909;52.202;9.876;2023-07-08T09:19:47;3.78;;;2.67;;
13672;SDS011;6909;52.202;9.876;2023-07-08T09:22:19;2.80;;;2.60;;
13672;SDS011;6909;52.202;9.876;2023-07-08T09:24:52;3.13;;;2.53;;
13672;SDS011;6909;52.202;9.876;2023-07-08T09:27:25;2.95;;;2.65;;
13672;SDS011;6909;52.202;9.876;2023-07-08T09:29:51;2.80;;;2.60;;
13672;SDS011;6909;52.202;9.876;2023-07-08T09:32:19;3.95;;;2.72;;
13672;SDS011;6909;52.202;9.876;2023-07-08T09:34:50;3.47;;;2.47;;
13672;SDS011;6909;52.202;9.876;2023-07-08T09:37:24;3.40;;;2.88;;
13672;SDS011;6909;52.202;9.876;2023-07-08T09:39:54;3.75;;;2.60;;
13672;SDS011;6909;52.202;9.876;2023-07-08T09:42:21;2.90;;;2.65;;
13672;SDS011;6909;52.202;9.876;2023-07-08T09:44:54;3.20;;;2.50;;
13672;SDS011;6909;52.202;9.876;2023-07-08T09:47:24;3.20;;;2.70;;
13672;SDS011;6909;52.202;9.876;2023-07-08T09:49:57;5.30;;;2.90;;
13672;SDS011;6909;52.202;9.876;2023-07-08T09:52:24;3.90;;;3.05;;
13672;SDS011;6909;52.202;9.876;2023-07-08T09:54:51;3.95;;;2.95;;
13672;SDS011;6909;52.202;9.876;2023-07-08T09:57:21;3.20;;;2.85;;
13672;SDS011;6909;52.202;9.876;2023-07-08T09:59:55;2.70;;;2.42;;
13672;SDS011;6909;52.202;9.876;2023-07-08T10:02:28;2.83;;;2.55;;
13672;SDS011;6909;52.202;9.876;2023-07-08T10:04:59;2.78;;;2.55;;
13672;SDS011;6909;52.202;9.876;2023-07-08T10:07:27;2.90;;;2.70;;
13672;SDS011;6909;52.202;9.876;2023-07-08T10:09:57;3.33;;;2.25;;
13672;SDS011;6909;52.202;9.876;2023-07-08T10:12:26;4.47;;;2.55;;
13672;SDS011;6909;52.202;9.876;2023-07-08T10:14:54;3.30;;;2.67;;
13672;SDS011;6909;52.202;9.876;2023-07-08T10:17:24;2.58;;;2.38;;
13672;SDS011;6909;52.202;9.876;2023-07-08T10:19:51;2.65;;;2.45;;
13672;SDS011;6909;52.202;9.876;2023-07-08T10:22:26;3.50;;;2.85;;
13672;SDS011;6909;52.202;9.876;2023-07-08T10:25:08;3.10;;;2.60;;
13672;SDS011;6909;52.202;9.876;2023-07-08T10:27:39;2.53;;;2.33;;
13672;SDS011;6909;52.202;9.876;2023-07-08T10:30:14;5.00;;;2.92;;
13672;SDS011;6909;52.202;9.876;2023-07-08T10:32:49;2.80;;;2.50;;
13672;SDS011;6909;52.202;9.876;2023-07-08T10:35:39;3.53;;;2.70;;
13672;SDS011;6909;52.202;9.876;2023-07-08T10:38:18;3.08;;;2.78;;
13672;SDS011;6909;52.202;9.876;2023-07-08T10:40:56;2.38;;;2.00;;
13672;SDS011;6909;52.202;9.876;2023-07-08T10:43:42;4.00;;;2.78;;
13672;SDS011;6909;52.202;9.876;2023-07-08T10:46:22;2.13;;;1.92;;
13672;SDS011;6909;52.202;9.876;2023-07-08T10:49:01;2.50;;;2.30;;
13672;SDS011;6909;52.202;9.876;2023-07-08T10:51:40;5.85;;;3.13;;
13672;SDS011;6909;52.202;9.876;2023-07-08T10:54:20;2.47;;;2.28;;
13672;SDS011;6909;52.202;9.876;2023-07-08T10:57:05;2.55;;;2.17;;
13672;SDS011;6909;52.202;9.876;2023-07-08T10:59:44;2.10;;;2.00;;
13672;SDS011;6909;52.202;9.876;2023-07-08T11:02:26;2.38;;;2.17;;
13672;SDS011;6909;52.202;9.876;2023-07-08T11:05:23;2.58;;;2.20;;
13672;SDS011;6909;52.202;9.876;2023-07-08T11:07:58;2.83;;;2.15;;
13672;SDS011;6909;52.202;9.876;2023-07-08T11:10:31;2.28;;;2.10;;
13672;SDS011;6909;52.202;9.876;2023-07-08T11:13:03;2.30;;;2.10;;
13672;SDS011;6909;52.202;9.876;2023-07-08T11:15:33;2.40;;;2.20;;
13672;SDS011;6909;52.202;9.876;2023-07-08T11:18:10;2.50;;;2.30;;
13672;SDS011;6909;52.202;9.876;2023-07-08T11:20:41;2.70;;;2.50;;
13672;SDS011;6909;52.202;9.876;2023-07-08T11:23:14;2.50;;;2.30;;
13672;SDS011;6909;52.202;9.876;2023-07-08T11:25:50;2.42;;;2.28;;
13672;SDS011;6909;52.202;9.876;2023-07-08T11:28:19;2.72;;;2.53;;
13672;SDS011;6909;52.202;9.876;2023-07-08T11:30:49;3.10;;;2.80;;
13672;SDS011;6909;52.202;9.876;2023-07-08T11:33:17;3.13;;;2.83;;
13672;SDS011;6909;52.202;9.876;2023-07-08T11:35:49;2.60;;;2.40;;
13672;SDS011;6909;52.202;9.876;2023-07-08T11:38:20;2.60;;;2.40;;
13672;SDS011;6909;52.202;9.876;2023-07-08T11:40:53;2.30;;;2.10;;
13672;SDS011;6909;52.202;9.876;2023-07-08T11:43:23;2.08;;;1.92;;
13672;SDS011;6909;52.202;9.876;2023-07-08T11:45:54;2.13;;;1.90;;
13672;SDS011;6909;52.202;9.876;2023-07-08T11:48:23;2.88;;;2.25;;
13672;SDS011;6909;52.202;9.876;2023-07-08T11:50:53;2.47;;;2.28;;
13672;SDS011;6909;52.202;9.876;2023-07-08T11:53:37;2.50;;;2.25;;
13672;SDS011;6909;52.202;9.876;2023-07-08T11:56:20;3.08;;;2.00;;
13672;SDS011;6909;52.202;9.876;2023-07-08T11:58:50;2.08;;;1.90;;
13672;SDS011;6909;52.202;9.876;2023-07-08T12:01:32;2.35;;;1.98;;
13672;SDS011;6909;52.202;9.876;2023-07-08T12:04:15;2.20;;;2.00;;
13672;SDS011;6909;52.202;9.876;2023-07-08T12:06:53;2.47;;;1.90;;
13672;SDS011;6909;52.202;9.876;2023-07-08T12:09:34;1.90;;;1.80;;
13672;SDS011;6909;52.202;9.876;2023-07-08T12:12:05;2.70;;;2.50;;
13672;SDS011;6909;52.202;9.876;2023-07-08T12:14:39;2.55;;;2.30;;
13672;SDS011;6909;52.202;9.876;2023-07-08T12:17:08;2.20;;;2.00;;
13672;SDS011;6909;52.202;9.876;2023-07-08T12:19:37;2.85;;;2.40;;
13672;SDS011;6909;52.202;9.876;2023-07-08T12:22:08;2.33;;;2.13;;
13672;SDS011;6909;52.202;9.876;2023-07-08T12:24:36;2.40;;;2.20;;
13672;SDS011;6909;52.202;9.876;2023-07-08T12:27:05;1.95;;;1.75;;
13672;SDS011;6909;52.202;9.876;2023-07-08T12:29:32;3.65;;;2.78;;
13672;SDS011;6909;52.202;9.876;2023-07-08T12:31:58;2.10;;;1.90;;
13672;SDS011;6909;52.202;9.876;2023-07-08T12:34:25;2.35;;;1.98;;
13672;SDS011;6909;52.202;9.876;2023-07-08T12:36:52;3.10;;;1.83;;
13672;SDS011;6909;52.202;9.876;2023-07-08T12:39:20;2.22;;;1.83;;
13672;SDS011;6909;52.202;9.876;2023-07-08T12:41:47;2.45;;;2.25;;
13672;SDS011;6909;52.202;9.876;2023-07-08T12:44:16;2.80;;;2.30;;
13672;SDS011;6909;52.202;9.876;2023-07-08T12:46:45;2.50;;;2.30;;
13672;SDS011;6909;52.202;9.876;2023-07-08T12:49:13;2.38;;;2.17;;
13672;SDS011;6909;52.202;9.876;2023-07-08T12:51:41;2.55;;;2.20;;
13672;SDS011;6909;52.202;9.876;2023-07-08T12:54:09;2.25;;;2.05;;
13672;SDS011;6909;52.202;9.876;2023-07-08T12:56:37;2.97;;;2.67;;
13672;SDS011;6909;52.202;9.876;2023-07-08T12:59:05;2.30;;;2.10;;
13672;SDS011;6909;52.202;9.876;2023-07-08T13:01:34;2.80;;;2.25;;
13672;SDS011;6909;52.202;9.876;2023-07-08T13:04:03;2.25;;;2.05;;
13672;SDS011;6909;52.202;9.876;2023-07-08T13:06:32;3.33;;;2.70;;
13672;SDS011;6909;52.202;9.876;2023-07-08T13:09:02;2.50;;;2.30;;
13672;SDS011;6909;52.202;9.876;2023-07-08T13:11:33;2.38;;;2.03;;
13672;SDS011;6909;52.202;9.876;2023-07-08T13:14:01;2.22;;;2.03;;
13672;SDS011;6909;52.202;9.876;2023-07-08T13:16:32;2.40;;;2.20;;
13672;SDS011;6909;52.202;9.876;2023-07-08T13:19:01;2.60;;;2.40;;
13672;SDS011;6909;52.202;9.876;2023-07-08T13:21:29;3.08;;;2.30;;
13672;SDS011;6909;52.202;9.876;2023-07-08T13:23:57;2.72;;;2.00;;
13672;SDS011;6909;52.202;9.876;2023-07-08T13:26:25;3.38;;;2.33;;
13672;SDS011;6909;52.202;9.876;2023-07-08T13:28:59;2.05;;;1.85;;
13672;SDS011;6909;52.202;9.876;2023-07-08T13:31:31;2.40;;;2.05;;
13672;SDS011;6909;52.202;9.876;2023-07-08T13:34:05;3.22;;;2.15;;
13672;SDS011;6909;52.202;9.876;2023-07-08T13:36:35;2.33;;;2.13;;
13672;SDS011;6909;52.202;9.876;2023-07-08T13:39:05;3.53;;;2.60;;
13672;SDS011;6909;52.202;9.876;2023-07-08T13:41:33;2.47;;;2.28;;
13672;SDS011;6909;52.202;9.876;2023-07-08T13:44:03;2.78;;;2.30;;
13672;SDS011;6909;52.202;9.876;2023-07-08T13:46:34;2.10;;;1.90;;
13672;SDS011;6909;52.202;9.876;2023-07-08T13:49:09;2.72;;;2.47;;
13672;SDS011;6909;52.202;9.876;2023-07-08T13:51:38;2.70;;;2.10;;
13672;SDS011;6909;52.202;9.876;2023-07-08T13:54:09;3.60;;;2.58;;
13672;SDS011;6909;52.202;9.876;2023-07-08T13:56:40;2.85;;;2.17;;
13672;SDS011;6909;52.202;9.876;2023-07-08T13:59:09;2.47;;;2.28;;
13672;SDS011;6909;52.202;9.876;2023-07-08T14:01:41;2.53;;;2.33;;
13672;SDS011;6909;52.202;9.876;2023-07-08T14:04:11;2.45;;;2.25;;
13672;SDS011;6909;52.202;9.876;2023-07-08T14:06:42;2.20;;;2.00;;
13672;SDS011;6909;52.202;9.876;2023-07-08T14:09:11;2.50;;;2.30;;
13672;SDS011;6909;52.202;9.876;2023-07-08T14:11:39;1.90;;;1.80;;
13672;SDS011;6909;52.202;9.876;2023-07-08T14:14:07;2.08;;;1.88;;
13672;SDS011;6909;52.202;9.876;2023-07-08T14:16:34;2.22;;;2.00;;
13672;SDS011;6909;52.202;9.876;2023-07-08T14:19:03;2.38;;;2.17;;
13672;SDS011;6909;52.202;9.876;2023-07-08T14:21:33;2.30;;;2.10;;
13672;SDS011;6909;52.202;9.876;2023-07-08T14:24:02;2.30;;;1.95;;
13672;SDS011;6909;52.202;9.876;2023-07-08T14:26:34;2.22;;;2.10;;
13672;SDS011;6909;52.202;9.876;2023-07-08T14:29:01;2.50;;;2.30;;
13672;SDS011;6909;52.202;9.876;2023-07-08T14:31:27;2.80;;;2.60;;
13672;SDS011;6909;52.202;9.876;2023-07-08T14:33:56;3.70;;;2.75;;
13672;SDS011;6909;52.202;9.876;2023-07-08T14:36:28;2.58;;;2.30;;
13672;SDS011;6909;52.202;9.876;2023-07-08T14:38:56;2.53;;;2.20;;
13672;SDS011;6909;52.202;9.876;2023-07-08T14:41:23;2.58;;;2.38;;
13672;SDS011;6909;52.202;9.876;2023-07-08T14:43:50;2.70;;;2.30;;
13672;SDS011;6909;52.202;9.876;2023-07-08T14:46:17;4.28;;;2.47;;
13672;SDS011;6909;52.202;9.876;2023-07-08T14:48:44;3.30;;;2.40;;
13672;SDS011;6909;52.202;9.876;2023-07-08T14:51:10;2.83;;;2.30;;
13672;SDS011;6909;52.202;9.876;2023-07-08T14:53:37;4.13;;;2.58;;
13672;SDS011;6909;52.202;9.876;2023-07-08T14:56:06;2.17;;;1.98;;
13672;SDS011;6909;52.202;9.876;2023-07-08T14:58:40;2.67;;;2.15;;
13672;SDS011;6909;52.202;9.876;2023-07-08T15:01:11;3.10;;;2.38;;
13672;SDS011;6909;52.202;9.876;2023-07-08T15:03:43;2.35;;;2.15;;
13672;SDS011;6909;52.202;9.876;2023-07-08T15:06:09;2.88;;;2.25;;
13672;SDS011;6909;52.202;9.876;2023-07-08T15:08:37;2.13;;;2.00;;
13672;SDS011;6909;52.202;9.876;2023-07-08T15:11:04;2.75;;;2.55;;
13672;SDS011;6909;52.202;9.876;2023-07-08T15:13:35;2.75;;;2.45;;